FL64 weather

Hardrives Delta Nr 3 Helistop
Delray Beach, Florida, United States

Public forecast

Using degrees Fahrenheit for public forecast. Weather courtesy of forecast.io.

Closest aviation weather report (METAR) to Hardrives Delta Nr 3 Helistop

Closest report is Boca Raton Airport, 3.3 nm (6.2 km) SSW. Retrieved 2019/11/17 12:47 UTC (1 hour ago):

KBCT 171247Z 34012KT 10SM OVC015 14/10 A2992

Closest aviation forecast (TAF) to Hardrives Delta Nr 3 Helistop

Closest forecast is Fort Lauderdale Executive Airport, 14.7 nm (27.3 km) SSW. Retrieved 2019/11/17 12:24 UTC (1 hour ago):

TAF KFXE 171121Z 1712/1812 32010KT P6SM BKN010 FM171500 30010KT P6SM FEW035 SCT050 FM180000 VRB04KT P6SM FEW050